Schedule Details

Flight Number: CPX286
Departure: Fort Worth Alliance Airport (KAFW) at N/A
Arrival: Seattle-Tacoma International Airport (KSEA) at N/A
Route: SWABR5 HUDAD PNH ALS JNC TCH TWF BKE PDT CHINS3


Current Weather Information
KAFW 192217Z 01009KT 2SM -RA BR BKN004 OVC009 03/02 A2994 RMK AO2 P0001 T00280017
KSEA 192222Z 22010KT 10SM OVC015 06/03 A3004 RMK AO2 RAE20 P0000 T00560028